Погода Глендорана неделю

Калифорния, США

01 - 07 сентября
  • 01сентября
    Сегодня
    +15°
    +30°
    Ясно и безоблачно
    ВремяПогодаТемператураВлажностьДавлениеВетер, м/сВероятность осадков
    02:00Ясно и безоблачно+18°C78 %740 мм1.7 м/с2 %
    05:00Ясно и безоблачно+17°C86 %740 мм1.1 м/с2 %
    08:00Ясно и безоблачно+18°C78 %741 мм0.8 м/с2 %
    11:00Ясно и безоблачно+25°C46 %741 мм2.0 м/с2 %
    14:00Ясно и безоблачно+29°C31 %741 мм4.6 м/с2 %
    17:00Ясно и безоблачно+29°C30 %740 мм5.5 м/с2 %
    20:00Ясно и безоблачно+22°C46 %740 мм3.9 м/с2 %
    23:00Ясно и безоблачно+19°C64 %741 мм2.7 м/с2 %
  • 02сентября
    Среда
    +16°
    +29°
    Ясно и безоблачно
    ВремяПогодаТемператураВлажностьДавлениеВетер, м/сВероятность осадков
    02:00Ясно и безоблачно+17°C76 %741 мм1.4 м/с2 %
    05:00Ясно и безоблачно+15°C83 %741 мм0.7 м/с2 %
    08:00Ясно и безоблачно+18°C70 %741 мм0.4 м/с2 %
    11:00Ясно и безоблачно+24°C45 %742 мм1.6 м/с2 %
    14:00Ясно и безоблачно+28°C30 %741 мм4.2 м/с2 %
    17:00Ясно и безоблачно+28°C28 %740 мм5.5 м/с2 %
    20:00Ясно и безоблачно+22°C45 %740 мм4.1 м/с2 %
    23:00Ясно и безоблачно+19°C59 %740 мм2.2 м/с2 %
  • 03сентября
    Четверг
    +16°
    +29°
    Ясно и безоблачно
    ВремяПогодаТемператураВлажностьДавлениеВетер, м/сВероятность осадков
    02:00Ясно и безоблачно+18°C67 %740 мм1.2 м/с2 %
    05:00Ясно и безоблачно+16°C75 %739 мм0.7 м/с2 %
    08:00Ясно и безоблачно+18°C70 %740 мм0.5 м/с2 %
    11:00Ясно и безоблачно+24°C48 %740 мм1.5 м/с2 %
    14:00Ясно и безоблачно+28°C37 %739 мм4.3 м/с2 %
    17:00Ясно и безоблачно+28°C39 %738 мм5.2 м/с2 %
    20:00Ясно и безоблачно+22°C62 %738 мм4.2 м/с2 %
    23:00Ясно и безоблачно+19°C74 %739 мм2.4 м/с2 %
  • 04сентября
    Пятница
    +16°
    +30°
    Ясно и безоблачно
    ВремяПогодаТемператураВлажностьДавлениеВетер, м/сВероятность осадков
    02:00Ясно и безоблачно+17°C84 %739 мм1.4 м/с2 %
    05:00Ясно и безоблачно+16°C92 %739 мм0.7 м/с2 %
    08:00Ясно и безоблачно+18°C80 %739 мм0.3 м/с2 %
    11:00Ясно и безоблачно+24°C50 %740 мм1.1 м/с2 %
    14:00Ясно и безоблачно+28°C35 %739 мм4.0 м/с2 %
    17:00Ясно и безоблачно+29°C30 %738 мм4.8 м/с2 %
    20:00Ясно и безоблачно+23°C53 %739 мм3.8 м/с2 %
    23:00Ясно и безоблачно+20°C75 %739 мм2.3 м/с2 %
  • 05сентября
    Суббота
    +19°
    +32°
    Ясно и безоблачно
    ВремяПогодаТемператураВлажностьДавлениеВетер, м/сВероятность осадков
    02:00Ясно и безоблачно+18°C87 %739 мм1.3 м/с4 %
    05:00Ясно и безоблачно+16°C90 %739 мм0.5 м/с7 %
    08:00Ясно и безоблачно+19°C65 %740 мм0.0 м/с12 %
    11:00Ясно и безоблачно+27°C25 %740 мм1.5 м/с15 %
    14:00Ясно и безоблачно+30°C23 %739 мм4.5 м/с22 %
    17:00Ясно и безоблачно+31°C18 %739 мм5.2 м/с27 %
    20:00Ясно и безоблачно+25°C41 %739 мм4.3 м/с22 %
    23:00Ясно и безоблачно+22°C59 %740 мм2.3 м/с23 %
  • 06сентября
    Воскресенье
    +20°
    +32°
    Ясно и безоблачно
    ВремяПогодаТемператураВлажностьДавлениеВетер, м/сВероятность осадков
    05:00Практически безоблачно+20°C89 %739 мм0.9 м/с33 %
    11:00Ясно и безоблачно+27°C60 %740 мм0.6 м/с38 %
    17:00Ясно и безоблачно+32°C44 %738 мм3.6 м/с43 %
    23:00Ясно и безоблачно+24°C54 %740 мм1.3 м/с27 %
  • 07сентября
    Понедельник
    +18°
    +33°
    Ясно и безоблачно
    ВремяПогодаТемператураВлажностьДавлениеВетер, м/сВероятность осадков
    05:00Ясно и безоблачно+20°C59 %739 мм1.3 м/с20 %
    11:00Ясно и безоблачно+29°C31 %740 мм2.4 м/с25 %
    17:00Ясно и безоблачно+31°C29 %738 мм3.4 м/с32 %
    23:00Ясно и безоблачно+22°C57 %739 мм1.3 м/с19 %
Мы используем cookies
Соглашаюсь